createdAt,value
2019-03-01T00:00:08.755Z,35.85
2019-03-01T00:02:40.704Z,38.05
2019-03-01T00:05:51.502Z,37.95
2019-03-01T00:08:52.164Z,36.42
2019-03-01T00:11:40.676Z,36.85
2019-03-01T00:14:50.903Z,37.55
2019-03-01T00:17:52.136Z,35.55
2019-03-01T00:20:48.649Z,38.60
2019-03-01T00:23:55.851Z,38.70
2019-03-01T00:26:54.211Z,39.05
2019-03-01T00:29:46.356Z,40.83
2019-03-01T00:32:30.502Z,41.68
2019-03-01T00:35:33.938Z,45.38
2019-03-01T00:38:38.296Z,45.35
2019-03-01T00:41:24.961Z,47.23
2019-03-01T00:44:28.938Z,47.03
2019-03-01T00:46:59.452Z,52.43
2019-03-01T00:49:31.746Z,52.65
2019-03-01T00:52:02.258Z,54.83
2019-03-01T00:54:32.644Z,55.50
2019-03-01T00:57:02.980Z,56.75
2019-03-01T00:59:33.341Z,53.48
2019-03-01T01:02:03.684Z,57.62
2019-03-01T01:04:35.018Z,60.30
2019-03-01T01:07:05.485Z,57.25
2019-03-01T01:09:35.784Z,61.18
2019-03-01T01:12:06.114Z,62.00
2019-03-01T01:14:36.474Z,64.22
2019-03-01T01:17:06.791Z,66.82
2019-03-01T01:19:37.227Z,62.58
2019-03-01T01:22:07.550Z,67.95
2019-03-01T01:24:37.922Z,70.15
2019-03-01T01:27:08.280Z,72.17
2019-03-01T01:29:38.614Z,73.12
2019-03-01T01:32:08.973Z,76.25
2019-03-01T01:34:39.325Z,70.03
2019-03-01T01:37:09.623Z,75.57
2019-03-01T01:39:39.998Z,80.03
2019-03-01T01:42:10.312Z,85.62
2019-03-01T01:44:40.668Z,82.70
2019-03-01T01:47:10.967Z,89.58
2019-03-01T01:49:41.404Z,94.32
2019-03-01T01:52:11.731Z,103.20
2019-03-01T01:54:42.074Z,108.78
2019-03-01T01:57:12.509Z,109.10
2019-03-01T01:59:42.825Z,112.05
2019-03-01T02:02:13.158Z,114.37
2019-03-01T02:04:43.510Z,120.45
2019-03-01T02:07:13.800Z,104.60
2019-03-01T02:09:44.166Z,112.28
2019-03-01T02:12:14.493Z,111.85
2019-03-01T02:14:44.856Z,126.87
2019-03-01T02:17:15.159Z,124.53
2019-03-01T02:19:45.523Z,120.08
2019-03-01T02:22:15.827Z,128.10
2019-03-01T02:24:46.207Z,105.75
2019-03-01T02:27:24.337Z,115.25
2019-03-01T02:29:54.805Z,107.05
2019-03-01T02:32:30.685Z,111.45
2019-03-01T02:35:01.093Z,113.88
2019-03-01T02:37:32.467Z,109.42
2019-03-01T02:40:02.839Z,115.10
2019-03-01T02:42:33.235Z,108.63
2019-03-01T02:45:03.587Z,118.70
2019-03-01T02:47:34.149Z,119.28
2019-03-01T02:50:05.097Z,115.67
2019-03-01T02:52:35.433Z,115.12
2019-03-01T02:55:06.254Z,124.42
2019-03-01T02:57:36.567Z,128.50
2019-03-01T03:00:09.436Z,120.50
2019-03-01T03:02:39.841Z,113.55
2019-03-01T03:05:10.314Z,124.45
2019-03-01T03:07:45.602Z,122.20
2019-03-01T03:10:16.848Z,119.85
2019-03-01T03:12:47.599Z,120.95
2019-03-01T03:15:21.458Z,118.08
2019-03-01T03:17:51.776Z,125.07
2019-03-01T03:20:22.154Z,109.48
2019-03-01T03:22:52.457Z,115.52
2019-03-01T03:25:22.817Z,114.25
2019-03-01T03:27:53.176Z,109.10
2019-03-01T03:30:23.648Z,116.50
2019-03-01T03:32:54.081Z,109.40
2019-03-01T03:35:24.518Z,108.30
2019-03-01T03:37:54.867Z,117.90
2019-03-01T03:40:25.252Z,117.08
2019-03-01T03:42:55.566Z,111.75
2019-03-01T03:45:27.029Z,111.68
2019-03-01T03:47:58.443Z,102.50
2019-03-01T03:50:28.856Z,106.17
2019-03-01T03:52:59.175Z,106.80
2019-03-01T03:55:29.666Z,110.00
2019-03-01T03:58:00.079Z,111.10
2019-03-01T04:00:34.056Z,122.05
2019-03-01T04:03:05.349Z,107.15
2019-03-01T04:05:35.690Z,120.53
2019-03-01T04:08:06.017Z,120.20
2019-03-01T04:10:36.404Z,116.25
2019-03-01T04:13:06.753Z,110.08
2019-03-01T04:15:37.114Z,116.40
2019-03-01T04:18:07.463Z,101.10
2019-03-01T04:20:37.798Z,109.50
2019-03-01T04:23:08.205Z,103.02
2019-03-01T04:25:38.590Z,106.72
2019-03-01T04:28:08.913Z,110.52
2019-03-01T04:30:39.289Z,109.55
2019-03-01T04:33:09.632Z,104.47
2019-03-01T04:35:40.029Z,111.65
2019-03-01T04:38:10.345Z,95.92
2019-03-01T04:40:40.772Z,100.60
2019-03-01T04:43:11.090Z,103.50
2019-03-01T04:45:41.492Z,106.63
2019-03-01T04:48:11.825Z,94.58
2019-03-01T04:50:42.178Z,95.10
2019-03-01T04:53:12.510Z,99.25
2019-03-01T04:55:42.845Z,92.95
2019-03-01T04:58:13.159Z,113.75
2019-03-01T05:00:43.494Z,87.88
2019-03-01T05:03:13.872Z,91.75
2019-03-01T05:05:44.215Z,90.07
2019-03-01T05:08:14.538Z,82.00
2019-03-01T05:10:44.885Z,74.47
2019-03-01T05:13:16.252Z,74.07
2019-03-01T05:15:46.600Z,68.62
2019-03-01T05:18:16.933Z,66.05
2019-03-01T05:20:47.315Z,70.80
2019-03-01T05:23:17.617Z,63.60
2019-03-01T05:25:47.979Z,70.00
2019-03-01T05:28:18.340Z,58.08
2019-03-01T05:30:48.758Z,58.13
2019-03-01T05:33:19.081Z,64.53
2019-03-01T05:35:49.444Z,48.63
2019-03-01T05:38:21.993Z,42.50
2019-03-01T05:40:51.777Z,43.80
2019-03-01T05:43:22.125Z,45.95
2019-03-01T05:45:52.516Z,38.50
2019-03-01T05:48:22.891Z,46.42
2019-03-01T05:50:53.236Z,39.63
2019-03-01T05:53:23.572Z,37.85
2019-03-01T05:55:53.990Z,38.02
2019-03-01T05:58:45.230Z,32.40
2019-03-01T06:01:38.165Z,35.83
2019-03-01T06:04:24.787Z,33.00
2019-03-01T06:07:35.242Z,29.67
2019-03-01T06:10:13.839Z,30.50
2019-03-01T06:13:16.826Z,29.67
2019-03-01T06:16:46.158Z,28.75
2019-03-01T06:19:44.731Z,27.93
2019-03-01T06:22:59.190Z,29.10
2019-03-01T06:26:19.274Z,26.75
2019-03-01T06:29:45.947Z,28.52
2019-03-01T06:32:55.564Z,28.38
2019-03-01T06:35:54.386Z,27.60
2019-03-01T06:39:20.250Z,27.02
2019-03-01T06:42:28.466Z,26.97
2019-03-01T06:45:27.559Z,24.37
2019-03-01T06:47:57.884Z,27.10
2019-03-01T06:50:35.289Z,27.77
2019-03-01T06:53:05.665Z,26.73
2019-03-01T06:55:48.831Z,27.48
2019-03-01T06:58:43.220Z,25.35
2019-03-01T07:01:22.429Z,25.88
2019-03-01T07:04:02.154Z,26.33
2019-03-01T07:06:32.512Z,27.10
2019-03-01T07:09:02.942Z,28.52
2019-03-01T07:11:34.926Z,24.60
2019-03-01T07:14:05.249Z,27.30
2019-03-01T07:16:35.612Z,28.07
2019-03-01T07:19:05.961Z,28.70
2019-03-01T07:21:36.814Z,29.95
2019-03-01T07:24:07.178Z,29.63
2019-03-01T07:26:37.589Z,33.08
2019-03-01T07:29:07.897Z,30.55
2019-03-01T07:31:38.269Z,27.62
2019-03-01T07:34:08.603Z,29.18
2019-03-01T07:36:39.023Z,28.70
2019-03-01T07:39:10.457Z,32.63
2019-03-01T07:41:40.811Z,28.32
2019-03-01T07:44:11.129Z,30.80
2019-03-01T07:46:41.517Z,22.65
2019-03-01T07:49:11.850Z,23.20
2019-03-01T07:51:42.232Z,23.07
2019-03-01T07:54:13.375Z,21.87
2019-03-01T07:56:44.553Z,21.02
2019-03-01T07:59:14.869Z,20.08
2019-03-01T08:01:45.237Z,18.73
2019-03-01T08:04:15.585Z,17.67
2019-03-01T08:06:48.763Z,17.12
2019-03-01T08:09:18.151Z,14.70
2019-03-01T08:11:48.503Z,16.20
2019-03-01T08:14:18.839Z,16.80
2019-03-01T08:16:52.514Z,17.30
2019-03-01T08:19:22.523Z,17.15
2019-03-01T08:21:53.102Z,15.72
2019-03-01T08:24:23.425Z,16.55
2019-03-01T08:26:53.873Z,15.45
2019-03-01T08:29:24.192Z,15.90
2019-03-01T08:31:55.935Z,16.23
2019-03-01T08:34:26.475Z,17.02
2019-03-01T08:36:56.834Z,16.67
2019-03-01T08:39:27.288Z,16.80
2019-03-01T08:42:01.211Z,19.37
2019-03-01T08:44:29.550Z,16.55
2019-03-01T08:47:00.028Z,18.92
2019-03-01T08:49:30.363Z,19.73
2019-03-01T08:52:01.452Z,19.42
2019-03-01T08:54:33.739Z,20.62
2019-03-01T08:57:04.143Z,21.15
2019-03-01T08:59:34.529Z,21.85
2019-03-01T09:02:04.958Z,23.98
2019-03-01T09:04:37.931Z,23.87
2019-03-01T09:07:07.433Z,24.12
2019-03-01T09:09:37.745Z,24.72
2019-03-01T09:12:08.154Z,25.25
2019-03-01T09:14:38.539Z,23.85
2019-03-01T09:17:08.886Z,25.50
2019-03-01T09:19:39.232Z,23.77
2019-03-01T09:22:09.613Z,23.98
2019-03-01T09:24:39.959Z,25.08
2019-03-01T09:27:10.390Z,24.75
2019-03-01T09:29:42.042Z,24.98
2019-03-01T09:32:12.727Z,26.15
2019-03-01T09:34:42.988Z,25.82
2019-03-01T09:37:13.316Z,24.02
2019-03-01T09:39:43.649Z,25.10
2019-03-01T09:42:15.516Z,25.23
2019-03-01T09:44:45.979Z,25.10
2019-03-01T09:47:16.344Z,24.92
2019-03-01T09:49:46.693Z,24.52
2019-03-01T09:52:17.064Z,24.75
2019-03-01T09:54:47.468Z,22.75
2019-03-01T09:57:17.823Z,23.40
2019-03-01T09:59:48.162Z,21.93
2019-03-01T10:02:18.499Z,21.45
2019-03-01T10:04:49.886Z,22.22
2019-03-01T10:07:20.299Z,20.52
2019-03-01T10:09:50.615Z,21.42
2019-03-01T10:12:20.950Z,22.40
2019-03-01T10:14:51.260Z,21.40
2019-03-01T10:17:22.739Z,21.07
2019-03-01T10:19:53.092Z,19.70
2019-03-01T10:22:23.450Z,19.82
2019-03-01T10:24:53.769Z,21.70
2019-03-01T10:27:24.159Z,21.45
2019-03-01T10:29:54.457Z,21.68
2019-03-01T10:32:24.824Z,21.42
2019-03-01T10:34:55.118Z,22.58
2019-03-01T10:37:25.481Z,21.70
2019-03-01T10:39:55.882Z,22.35
2019-03-01T10:42:26.265Z,22.87
2019-03-01T10:44:56.577Z,22.25
2019-03-01T10:47:27.059Z,21.97
2019-03-01T10:49:57.371Z,22.67
2019-03-01T10:52:27.745Z,24.05
2019-03-01T10:54:58.068Z,22.75
2019-03-01T10:57:28.444Z,24.23
2019-03-01T10:59:58.770Z,24.05
2019-03-01T11:02:29.162Z,24.27
2019-03-01T11:04:59.507Z,24.02
2019-03-01T11:07:29.909Z,26.57
2019-03-01T11:10:00.307Z,25.12
2019-03-01T11:12:30.687Z,27.07
2019-03-01T11:15:01.013Z,26.35
2019-03-01T11:17:31.467Z,25.95
2019-03-01T11:20:01.783Z,27.40
2019-03-01T11:22:32.334Z,23.87
2019-03-01T11:25:02.681Z,26.02
2019-03-01T11:27:33.049Z,24.63
2019-03-01T11:30:03.537Z,23.10
2019-03-01T11:32:34.203Z,25.27
2019-03-01T11:35:04.974Z,24.50
2019-03-01T11:37:35.348Z,23.80
2019-03-01T11:40:06.980Z,23.90
2019-03-01T11:42:37.427Z,23.10
2019-03-01T11:45:09.073Z,23.02
2019-03-01T11:47:39.491Z,21.33
2019-03-01T11:50:12.497Z,21.73
2019-03-01T11:52:42.949Z,23.57
2019-03-01T11:55:13.894Z,21.93
2019-03-01T11:57:44.316Z,22.42
2019-03-01T12:00:18.214Z,20.90
2019-03-01T12:02:49.998Z,22.32
2019-03-01T12:05:20.487Z,23.18
2019-03-01T12:07:50.884Z,31.30
2019-03-01T12:10:22.608Z,30.43
2019-03-01T12:12:52.947Z,30.55
2019-03-01T12:15:24.535Z,31.10
2019-03-01T12:17:54.915Z,31.52
2019-03-01T12:20:25.269Z,28.85
2019-03-01T12:22:55.638Z,30.00
2019-03-01T12:25:26.048Z,31.90
2019-03-01T12:27:56.479Z,31.10
2019-03-01T12:30:26.826Z,29.25
2019-03-01T12:32:57.167Z,31.65
2019-03-01T12:35:27.517Z,32.00
2019-03-01T12:37:57.924Z,34.73
2019-03-01T12:40:28.257Z,38.88
2019-03-01T12:42:58.730Z,39.70
2019-03-01T12:45:29.073Z,36.98
2019-03-01T12:47:59.441Z,36.17
2019-03-01T12:50:29.801Z,34.80
2019-03-01T12:53:00.167Z,36.00
2019-03-01T12:55:30.745Z,32.53
2019-03-01T12:58:01.092Z,34.88
2019-03-01T13:00:31.638Z,31.80
2019-03-01T13:03:05.366Z,37.08
2019-03-01T13:05:33.950Z,34.00
2019-03-01T13:08:04.568Z,32.45
2019-03-01T13:10:36.758Z,33.42
2019-03-01T13:13:08.585Z,31.23
2019-03-01T13:15:39.178Z,29.55
2019-03-01T13:18:10.302Z,28.17
2019-03-01T13:20:41.536Z,18.17
2019-03-01T13:23:12.007Z,13.90
2019-03-01T13:25:44.168Z,13.68
2019-03-01T13:28:14.395Z,12.43
2019-03-01T13:30:44.718Z,12.45
2019-03-01T13:33:15.101Z,14.35
2019-03-01T13:35:45.478Z,15.18
2019-03-01T13:38:15.923Z,14.63
2019-03-01T13:40:46.271Z,15.98
2019-03-01T13:43:16.636Z,15.78
2019-03-01T13:45:47.421Z,16.55
2019-03-01T13:48:19.775Z,16.85
2019-03-01T13:50:50.321Z,15.88
2019-03-01T13:53:20.777Z,16.97
2019-03-01T13:55:51.324Z,18.67
2019-03-01T13:58:26.760Z,20.27
2019-03-01T14:00:53.747Z,20.15
2019-03-01T14:03:27.618Z,19.02
2019-03-01T14:05:56.165Z,20.55
2019-03-01T14:08:26.542Z,19.32
2019-03-01T14:10:56.916Z,21.27
2019-03-01T14:13:29.184Z,21.62
2019-03-01T14:15:59.272Z,22.15
2019-03-01T14:18:29.671Z,21.68
2019-03-01T14:21:00.062Z,22.82
2019-03-01T14:23:30.572Z,25.30
2019-03-01T14:26:00.976Z,25.20
2019-03-01T14:28:31.399Z,24.77
2019-03-01T14:31:04.048Z,24.57
2019-03-01T14:33:33.892Z,24.98
2019-03-01T14:36:04.319Z,25.05
2019-03-01T14:38:34.753Z,26.15
2019-03-01T14:41:05.166Z,30.15
2019-03-01T14:43:35.716Z,34.85
2019-03-01T14:46:06.124Z,32.10
2019-03-01T14:48:36.522Z,39.20
2019-03-01T14:51:10.475Z,35.25
2019-03-01T14:53:38.936Z,36.17
2019-03-01T14:56:21.385Z,36.83
2019-03-01T14:59:11.254Z,31.90
2019-03-01T15:02:22.096Z,29.82
2019-03-01T15:04:54.313Z,26.57
2019-03-01T15:07:27.831Z,27.35
2019-03-01T15:09:57.000Z,28.70
2019-03-01T15:12:29.788Z,30.88
2019-03-01T15:15:00.394Z,28.38
2019-03-01T15:17:30.778Z,33.63
2019-03-01T15:20:01.290Z,40.48
2019-03-01T15:22:32.782Z,43.95
2019-03-01T15:25:03.374Z,50.83
2019-03-01T15:27:39.687Z,51.30
2019-03-01T15:30:10.088Z,52.03
2019-03-01T15:32:40.933Z,55.92
2019-03-01T15:35:11.735Z,54.77
2019-03-01T15:37:42.050Z,54.08
2019-03-01T15:40:12.452Z,59.00
2019-03-01T15:42:42.954Z,59.13
2019-03-01T15:45:13.475Z,61.88
2019-03-01T15:47:43.783Z,67.67
2019-03-01T15:50:14.772Z,65.72
2019-03-01T15:52:45.695Z,64.15
2019-03-01T15:55:17.180Z,67.75
2019-03-01T15:57:48.741Z,70.95
2019-03-01T16:00:19.330Z,67.80
2019-03-01T16:02:49.998Z,61.90
2019-03-01T16:05:22.009Z,62.65
2019-03-01T16:07:52.309Z,62.62
2019-03-01T16:10:22.886Z,61.42
2019-03-01T16:12:53.224Z,64.62
2019-03-01T16:15:23.706Z,58.60
2019-03-01T16:17:57.597Z,64.07
2019-03-01T16:20:28.420Z,71.07
2019-03-01T16:22:59.200Z,71.97
2019-03-01T16:25:29.632Z,69.27
2019-03-01T16:28:00.714Z,69.87
2019-03-01T16:30:31.131Z,64.97
2019-03-01T16:33:01.589Z,67.42
2019-03-01T16:35:32.106Z,64.65
2019-03-01T16:38:03.058Z,65.78
2019-03-01T16:40:33.502Z,58.45
2019-03-01T16:43:03.924Z,68.67
2019-03-01T16:45:36.200Z,62.25
2019-03-01T16:48:25.417Z,61.35
2019-03-01T16:50:55.812Z,67.37
2019-03-01T16:53:26.189Z,62.05
2019-03-01T16:55:59.243Z,57.80
2019-03-01T16:58:29.181Z,54.50
2019-03-01T17:00:59.630Z,61.02
2019-03-01T17:03:29.992Z,55.80
2019-03-01T17:06:00.371Z,61.92
2019-03-01T17:08:31.633Z,55.17
2019-03-01T17:11:02.604Z,53.70
2019-03-01T17:13:34.301Z,57.43
2019-03-01T17:16:04.726Z,55.70
2019-03-01T17:41:23.546Z,39.75
2019-03-01T17:43:53.908Z,36.03
2019-03-01T17:46:25.453Z,32.15
2019-03-01T17:48:57.321Z,29.95
2019-03-01T17:51:28.894Z,27.10
2019-03-01T17:53:58.683Z,25.17
2019-03-01T17:56:28.357Z,25.32
2019-03-01T17:58:58.034Z,23.75
2019-03-01T18:01:28.271Z,26.17
2019-03-01T18:04:01.825Z,25.40
2019-03-01T18:06:32.140Z,27.93
2019-03-01T18:09:02.560Z,25.97
2019-03-01T18:11:34.508Z,26.20
2019-03-01T18:14:08.146Z,29.07
2019-03-01T18:16:38.567Z,23.02
2019-03-01T18:19:08.955Z,24.67
2019-03-01T18:21:39.301Z,22.55
2019-03-01T18:24:10.997Z,25.57
2019-03-01T18:26:42.766Z,25.00
2019-03-01T18:29:13.236Z,28.52
2019-03-01T18:31:43.554Z,26.87
2019-03-01T18:34:14.068Z,26.12
2019-03-01T18:36:45.803Z,29.82
2019-03-01T18:39:16.267Z,28.32
2019-03-01T18:41:46.579Z,26.27
2019-03-01T18:44:16.990Z,27.35
2019-03-01T18:46:47.338Z,26.93
2019-03-01T18:49:19.776Z,37.58
2019-03-01T18:51:49.796Z,28.50
2019-03-01T18:54:20.737Z,29.57
2019-03-01T18:56:57.100Z,28.92
2019-03-01T18:59:28.343Z,28.25
2019-03-01T19:02:00.824Z,28.15
2019-03-01T19:04:32.415Z,28.25
2019-03-01T19:07:03.826Z,27.62
2019-03-01T19:09:38.380Z,24.70
2019-03-01T19:12:12.547Z,28.52
2019-03-01T19:14:47.861Z,26.05
2019-03-01T19:20:16.244Z,21.97
2019-03-01T19:22:46.662Z,25.12
2019-03-01T19:25:17.278Z,25.25
2019-03-01T19:27:50.838Z,24.80
2019-03-01T19:30:20.953Z,24.65
2019-03-01T19:32:51.385Z,25.00
2019-03-01T19:35:28.512Z,26.45
2019-03-01T19:37:53.775Z,26.80
2019-03-01T19:40:24.164Z,27.62
2019-03-01T19:42:54.514Z,24.70
2019-03-01T19:45:24.932Z,25.00
2019-03-01T19:48:01.662Z,26.12
2019-03-01T19:50:27.455Z,26.65
2019-03-01T19:52:58.976Z,25.15
2019-03-01T19:55:29.390Z,25.72
2019-03-01T19:57:59.774Z,23.85
2019-03-01T20:00:30.161Z,22.80
2019-03-01T20:03:00.570Z,23.90
2019-03-01T20:05:31.880Z,23.25
2019-03-01T20:08:02.986Z,23.47
2019-03-01T20:10:33.380Z,23.18
2019-03-01T20:13:04.701Z,22.02
2019-03-01T20:15:35.100Z,22.70
2019-03-01T20:18:06.782Z,21.23
2019-03-01T20:20:37.472Z,23.22
2019-03-01T20:23:07.837Z,21.85
2019-03-01T20:25:38.312Z,21.95
2019-03-01T20:28:11.609Z,21.07
2019-03-01T20:30:41.083Z,21.75
2019-03-01T20:33:11.452Z,21.25
2019-03-01T20:35:41.821Z,23.92
2019-03-01T20:38:12.211Z,24.37
2019-03-01T20:40:42.590Z,23.73
2019-03-01T20:43:12.930Z,22.20
2019-03-01T20:45:43.358Z,22.58
2019-03-01T20:48:14.040Z,25.15
2019-03-01T20:50:47.661Z,23.80
2019-03-01T20:53:16.426Z,24.43
2019-03-01T20:55:46.882Z,22.42
2019-03-01T20:58:17.293Z,21.60
2019-03-01T21:00:47.806Z,21.57
2019-03-01T21:03:19.294Z,21.12
2019-03-01T21:05:49.838Z,21.20
2019-03-01T21:08:20.360Z,21.15
2019-03-01T21:10:50.854Z,22.80
2019-03-01T21:13:21.268Z,23.90
2019-03-01T21:15:53.196Z,22.70
2019-03-01T21:18:23.598Z,23.25
2019-03-01T21:20:54.701Z,22.15
2019-03-01T21:23:25.255Z,24.52
2019-03-01T21:25:55.632Z,21.82
2019-03-01T21:28:27.156Z,23.40
2019-03-01T21:30:59.092Z,20.85
2019-03-01T21:33:29.478Z,21.33
2019-03-01T21:35:59.981Z,21.52
2019-03-01T21:38:30.323Z,21.40
2019-03-01T21:41:00.681Z,21.48
2019-03-01T21:43:33.619Z,21.40
2019-03-01T21:46:03.035Z,20.65
2019-03-01T21:48:33.368Z,19.70
2019-03-01T21:51:03.771Z,21.02
2019-03-01T21:53:36.514Z,20.72
2019-03-01T21:56:08.531Z,20.70
2019-03-01T21:58:38.514Z,21.12
2019-03-01T22:01:10.205Z,21.90
2019-03-01T22:03:40.816Z,20.05
2019-03-01T22:06:11.217Z,18.73
2019-03-01T22:08:44.752Z,22.40
2019-03-01T22:11:13.760Z,21.20
2019-03-01T22:13:44.896Z,21.30
2019-03-01T22:16:16.250Z,20.37
2019-03-01T22:18:47.676Z,21.25
2019-03-01T22:21:22.565Z,19.25
2019-03-01T22:23:51.533Z,20.25
2019-03-01T22:26:22.042Z,19.95
2019-03-01T22:28:52.360Z,20.23
2019-03-01T22:31:22.767Z,20.20
2019-03-01T22:33:55.924Z,19.15
2019-03-01T22:36:25.089Z,19.52
2019-03-01T22:38:55.416Z,18.77
2019-03-01T22:41:25.819Z,18.23
2019-03-01T22:43:58.355Z,18.50
2019-03-01T22:46:28.152Z,18.60
2019-03-01T22:48:58.517Z,18.05
2019-03-01T22:51:28.862Z,16.17
2019-03-01T22:53:59.198Z,15.65
2019-03-01T22:56:29.510Z,16.30
2019-03-01T22:59:00.025Z,16.87
2019-03-01T23:01:37.045Z,16.57
2019-03-01T23:04:07.677Z,15.23
2019-03-01T23:06:37.981Z,16.25
2019-03-01T23:09:11.601Z,15.10
2019-03-01T23:11:42.768Z,15.50
2019-03-01T23:14:13.206Z,16.20
2019-03-01T23:16:43.518Z,14.05
2019-03-01T23:19:16.155Z,14.18
2019-03-01T23:21:45.785Z,13.25
2019-03-01T23:24:16.117Z,13.88
2019-03-01T23:26:46.424Z,14.15
2019-03-01T23:29:18.810Z,13.22
2019-03-01T23:31:48.790Z,13.10
2019-03-01T23:34:19.133Z,13.40
2019-03-01T23:36:49.470Z,12.70
2019-03-01T23:39:21.706Z,11.00
2019-03-01T23:41:51.754Z,12.28
2019-03-01T23:44:22.106Z,12.18
2019-03-01T23:46:52.423Z,12.03
2019-03-01T23:49:24.025Z,12.68
2019-03-01T23:51:54.524Z,11.55
2019-03-01T23:54:24.849Z,11.80
2019-03-01T23:56:55.168Z,12.68
2019-03-01T23:59:26.638Z,12.35
